Time;durP1;ratioP1;P1;durP2;ratioP2;P2;SDS_P1;SDS_P2;PMS_P1;PMS_P2;Temp;Humidity;BMP_temperature;BMP_pressure;BME280_temperature;BME280_humidity;BME280_pressure;Samples;Min_cycle;Max_cycle;Signal;HPM_P1;HPM_P2
2022/06/23 00:01:21;;;;;;;2.35;1.50;;;;;;;23.22;42.38;99304.69;7708506;32;37948;-71
2022/06/23 00:05:39;;;;;;;5.97;1.80;;;;;;;23.05;42.50;99324.56;7711807;32;37874;-73
2022/06/23 00:10:02;;;;;;;4.05;1.60;;;;;;;22.96;42.24;99333.16;7697332;32;38578;-72
2022/06/23 00:14:19;;;;;;;2.40;1.80;;;;;;;22.70;44.35;99325.47;7711400;32;40040;-74
2022/06/23 00:18:37;;;;;;;1.87;1.30;;;;;;;22.60;44.86;99331.59;7711014;32;37875;-73
2022/06/23 00:22:58;;;;;;;1.58;1.45;;;;;;;22.76;43.51;99335.09;7697625;32;37923;-72
2022/06/23 00:27:17;;;;;;;2.87;1.60;;;;;;;22.84;42.60;99353.53;7711065;32;39133;-72
2022/06/23 00:31:37;;;;;;;3.30;1.60;;;;;;;22.68;40.54;99350.03;7697522;32;40785;-73
2022/06/23 00:35:53;;;;;;;2.92;1.50;;;;;;;22.59;40.98;99349.44;7696915;32;38005;-73
2022/06/23 00:40:14;;;;;;;2.60;1.60;;;;;;;22.66;39.15;99349.56;7697451;32;37225;-72
2022/06/23 00:44:36;;;;;;;2.35;1.62;;;;;;;22.70;39.30;99350.47;7711027;32;40230;-73
2022/06/23 00:49:14;;;;;;;3.80;1.40;;;;;;;22.62;38.46;99357.03;7710663;32;40828;-74
2022/06/23 00:53:55;;;;;;;1.30;1.20;;;;;;;22.52;39.17;99377.84;7699341;32;37680;-72
2022/06/23 00:58:35;;;;;;;1.42;1.23;;;;;;;22.54;39.07;99389.38;7681593;32;36990;-73
2022/06/23 01:03:22;;;;;;;2.97;1.60;;;;;;;22.77;38.74;99386.75;7698688;32;39378;-74
2022/06/23 01:07:51;;;;;;;3.47;1.48;;;;;;;22.54;39.91;99380.25;7698980;32;39339;-74
2022/06/23 01:12:22;;;;;;;1.40;1.30;;;;;;;22.70;39.14;99369.91;7696413;32;38674;-72
2022/06/23 01:16:47;;;;;;;3.08;1.40;;;;;;;22.55;39.30;99376.34;7696731;32;37015;-73
2022/06/23 01:21:36;;;;;;;1.50;1.40;;;;;;;22.46;39.21;99382.09;7693795;32;39260;-73
2022/06/23 01:26:08;;;;;;;1.30;1.10;;;;;;;22.23;39.26;99385.50;7710130;32;40243;-73
2022/06/23 01:30:26;;;;;;;2.50;1.10;;;;;;;22.27;38.99;99391.13;7709636;32;38522;-73
2022/06/23 01:34:50;;;;;;;1.92;1.10;;;;;;;22.22;38.70;99378.31;7696635;32;38195;-73
2022/06/23 01:39:25;;;;;;;4.18;1.40;;;;;;;22.16;38.52;99354.78;7709830;32;39409;-73
2022/06/23 01:43:47;;;;;;;4.03;1.40;;;;;;;22.18;37.67;99348.88;7696810;32;40957;-72
2022/06/23 01:48:09;;;;;;;2.37;1.40;;;;;;;22.01;38.04;99358.38;7709623;32;38682;-73
2022/06/23 01:52:25;;;;;;;6.13;1.20;;;;;;;22.02;38.62;99371.88;7708851;32;37260;-74
2022/06/23 01:57:00;;;;;;;2.20;1.30;;;;;;;21.76;39.52;99373.22;7709374;32;39202;-73
2022/06/23 02:02:07;;;;;;;2.40;1.42;;;;;;;21.92;39.32;99381.56;7709429;32;39746;-73
2022/06/23 02:06:37;;;;;;;2.45;1.30;;;;;;;21.60;40.13;99394.62;7702024;32;38792;-72
2022/06/23 02:11:10;;;;;;;5.47;1.58;;;;;;;21.79;40.10;99376.47;7697293;32;37153;-72
2022/06/23 02:15:49;;;;;;;2.65;1.35;;;;;;;21.85;40.02;99378.63;7708715;32;39321;-72
2022/06/23 02:20:28;;;;;;;3.28;1.33;;;;;;;21.53;40.59;99375.00;7695764;32;40738;-74
2022/06/23 02:24:51;;;;;;;4.20;1.55;;;;;;;21.33;40.21;99388.69;7701173;32;37953;-73
2022/06/23 02:29:24;;;;;;;3.67;1.60;;;;;;;21.39;39.98;99381.75;7682582;32;35507;-73
2022/06/23 02:33:50;;;;;;;;;;;;;;;21.39;40.04;99392.03;7697817;32;40070;-73
2022/06/23 02:38:12;;;;;;;1.60;1.23;;;;;;;21.37;39.87;99388.81;7712313;32;40455;-73
2022/06/23 02:42:35;;;;;;;1.37;1.17;;;;;;;21.44;39.38;99399.28;7698702;32;37663;-74
2022/06/23 02:47:03;;;;;;;;;;;;;;;21.44;39.66;99404.81;7699241;32;37162;-72
2022/06/23 02:51:23;;;;;;;2.42;1.40;;;;;;;21.25;41.04;99414.63;7711985;32;39767;-72
2022/06/23 02:55:46;;;;;;;2.15;1.37;;;;;;;21.29;41.03;99426.62;7698112;32;39999;-72
2022/06/23 03:00:07;;;;;;;;;;;;;;;21.08;40.67;99417.69;7698781;32;38601;-74
2022/06/23 03:04:30;;;;;;;5.62;1.30;;;;;;;21.31;41.23;99418.75;7712088;32;36838;-72
2022/06/23 03:09:25;;;;;;;2.47;1.55;;;;;;;21.13;42.31;99434.09;7711716;32;39306;-73
2022/06/23 03:13:52;;;;;;;4.80;1.45;;;;;;;21.14;43.26;99442.03;7680925;32;40219;-73
2022/06/23 03:18:45;;;;;;;3.97;1.42;;;;;;;21.25;43.46;99447.06;7711204;32;37992;-72
2022/06/23 03:23:04;;;;;;;;;;;;;;;21.26;43.90;99446.72;7669959;32;38028;-73
2022/06/23 03:27:32;;;;;;;3.60;1.80;;;;;;;21.30;44.02;99455.97;7711778;32;41430;-72
2022/06/23 03:32:09;;;;;;;2.83;1.52;;;;;;;21.28;43.99;99452.72;7686038;32;39878;-72
2022/06/23 03:36:52;;;;;;;3.22;1.50;;;;;;;21.23;44.10;99455.75;7711171;32;38691;-72
2022/06/23 03:45:56;;;;;;;3.87;1.50;;;;;;;21.23;43.92;99446.63;7700159;32;39259;-72
2022/06/23 03:50:23;;;;;;;1.55;1.45;;;;;;;21.30;43.74;99453.19;7710901;32;39882;-73
2022/06/23 03:54:55;;;;;;;2.50;1.62;;;;;;;21.29;43.39;99470.97;7697801;32;38689;-72
2022/06/23 03:59:29;;;;;;;1.35;1.25;;;;;;;21.13;43.75;99472.88;7711119;32;37107;-72
2022/06/23 04:03:50;;;;;;;3.03;1.45;;;;;;;21.07;44.84;99479.81;7687968;32;39776;-72
2022/06/23 04:08:06;;;;;;;2.25;1.40;;;;;;;20.99;45.65;99485.16;7697567;32;39756;-74
2022/06/23 04:12:22;;;;;;;4.65;1.65;;;;;;;20.94;45.15;99490.13;7710901;32;38483;-72
2022/06/23 04:16:39;;;;;;;2.97;1.58;;;;;;;20.98;43.81;99493.81;7697021;32;37019;-73
2022/06/23 04:21:01;;;;;;;2.53;1.45;;;;;;;20.91;43.68;99499.94;7711207;32;39341;-72
2022/06/23 04:25:21;;;;;;;2.87;1.50;;;;;;;21.04;44.99;99514.59;7710765;32;40750;-73
2022/06/23 04:29:38;;;;;;;2.10;1.60;;;;;;;21.07;45.79;99524.16;7697212;32;38610;-73
2022/06/23 04:33:54;;;;;;;3.17;1.60;;;;;;;21.22;46.73;99526.22;7697133;32;37035;-73
2022/06/23 04:38:39;;;;;;;2.60;1.70;;;;;;;21.31;47.50;99537.97;7709980;32;39263;-72
2022/06/23 04:43:14;;;;;;;2.35;1.60;;;;;;;21.48;47.75;99534.13;7709571;32;40779;-72
2022/06/23 04:47:32;;;;;;;1.85;1.67;;;;;;;21.41;47.82;99538.66;7710391;32;37826;-72
2022/06/23 04:51:53;;;;;;;3.30;1.60;;;;;;;21.00;48.98;99546.91;7710319;32;37880;-72
2022/06/23 04:56:23;;;;;;;11.07;1.70;;;;;;;21.49;47.70;99557.13;7696223;32;39257;-72
2022/06/23 05:00:44;;;;;;;5.55;1.62;;;;;;;21.70;47.31;99554.19;7710803;32;40718;-73
2022/06/23 05:05:10;;;;;;;3.15;1.77;;;;;;;21.89;46.57;99561.84;7710294;32;38498;-73
2022/06/23 05:09:31;;;;;;;3.78;1.87;;;;;;;21.84;46.08;99567.66;7698133;32;37722;-73
2022/06/23 05:13:55;;;;;;;3.25;1.40;;;;;;;21.57;46.18;99564.50;7696452;32;40228;-72
2022/06/23 05:18:24;;;;;;;3.28;1.87;;;;;;;21.69;45.99;99571.97;7696817;32;40982;-71
2022/06/23 05:22:45;;;;;;;3.10;1.62;;;;;;;21.84;47.44;99581.53;7710020;32;38613;-76
2022/06/23 05:27:04;;;;;;;8.70;1.73;;;;;;;21.79;47.28;99587.31;7696685;32;37770;-77
2022/06/23 05:31:25;;;;;;;5.85;1.62;;;;;;;22.13;46.15;99586.72;7696270;32;39370;-73
2022/06/23 05:35:50;;;;;;;4.35;1.75;;;;;;;22.36;45.35;99579.81;7684240;32;40919;-73
2022/06/23 05:40:24;;;;;;;4.87;1.95;;;;;;;22.43;45.70;99594.66;7695803;32;38249;-71
2022/06/23 05:44:54;;;;;;;2.55;1.60;;;;;;;22.47;45.82;99592.81;7709334;32;37097;-71
2022/06/23 05:49:19;;;;;;;1.83;1.60;;;;;;;22.68;44.90;99594.53;7696088;32;39093;-74
2022/06/23 05:54:10;;;;;;;4.03;1.40;;;;;;;22.77;44.82;99592.38;7709154;32;39949;-76
2022/06/23 05:58:44;;;;;;;2.40;1.70;;;;;;;23.08;43.77;99595.50;7708667;32;37369;-76
2022/06/23 06:03:11;;;;;;;3.17;1.42;;;;;;;22.85;43.87;99608.06;7708962;32;37776;-76
2022/06/23 06:07:39;;;;;;;2.35;1.58;;;;;;;22.72;44.27;99612.09;7712025;32;37401;-75
2022/06/23 06:11:59;;;;;;;3.22;1.48;;;;;;;23.13;42.47;99609.12;7710942;32;39943;-75
2022/06/23 06:16:15;;;;;;;3.17;1.50;;;;;;;23.11;42.90;99612.28;7698894;32;38663;-76
2022/06/23 06:20:31;;;;;;;2.62;1.50;;;;;;;23.24;42.05;99619.34;7708597;32;37316;-75
2022/06/23 06:24:50;;;;;;;1.90;1.42;;;;;;;23.11;41.63;99634.53;7693420;32;39467;-75
2022/06/23 06:29:13;;;;;;;1.62;1.40;;;;;;;23.41;43.10;99634.03;7689589;32;39243;-76
2022/06/23 06:33:53;;;;;;;2.80;1.80;;;;;;;23.77;41.54;99629.25;7708995;32;38165;-75
2022/06/23 06:38:12;;;;;;;4.12;1.52;;;;;;;23.67;42.57;99627.84;7685015;32;36582;-73
2022/06/23 06:42:39;;;;;;;3.50;1.40;;;;;;;23.95;40.30;99630.44;7685778;32;39946;-74
2022/06/23 06:46:55;;;;;;;2.45;1.42;;;;;;;24.27;39.95;99626.72;7685376;32;40804;-74
2022/06/23 06:51:23;;;;;;;6.40;1.65;;;;;;;24.55;39.54;99626.47;7685639;32;36662;-74
2022/06/23 06:55:44;;;;;;;1.37;1.27;;;;;;;24.45;38.20;99622.28;7685539;32;38012;-71
2022/06/23 07:00:19;;;;;;;2.37;1.62;;;;;;;24.59;37.56;99627.34;7672022;32;39394;-71
2022/06/23 07:04:47;;;;;;;14.35;1.90;;;;;;;24.68;38.03;99629.88;7672761;32;40129;-72
2022/06/23 07:09:36;;;;;;;2.90;1.35;;;;;;;24.62;36.99;99636.94;7685048;32;38743;-72
2022/06/23 07:14:17;;;;;;;3.78;1.40;;;;;;;24.66;36.68;99644.19;7697995;32;36849;-74
2022/06/23 07:18:46;;;;;;;5.65;1.40;;;;;;;24.76;37.42;99639.19;7708796;32;40549;-73
2022/06/23 07:23:27;;;;;;;3.72;1.37;;;;;;;25.04;36.08;99644.44;7697756;32;40812;-70
2022/06/23 07:27:56;;;;;;;2.80;1.20;;;;;;;25.15;35.40;99650.16;7699946;32;38651;-74
2022/06/23 07:32:17;;;;;;;3.62;1.45;;;;;;;25.42;32.38;99651.03;7698612;32;36812;-76
2022/06/23 07:36:46;;;;;;;2.45;1.23;;;;;;;25.51;30.75;99650.75;7697838;32;39486;-75
2022/06/23 07:41:26;;;;;;;2.25;1.30;;;;;;;25.52;32.25;99661.53;7711137;32;39920;-76
2022/06/23 07:46:00;;;;;;;3.40;1.30;;;;;;;25.73;32.46;99661.03;7711272;32;37687;-76
2022/06/23 07:50:17;;;;;;;3.33;1.27;;;;;;;25.89;30.92;99665.63;7697321;32;37466;-77
2022/06/23 07:54:33;;;;;;;5.72;1.25;;;;;;;25.92;30.28;99674.06;7683865;32;39296;-66
2022/06/23 07:58:52;;;;;;;5.62;1.40;;;;;;;25.17;31.63;99692.47;7685150;32;39903;-72
2022/06/23 08:03:22;;;;;;;6.30;1.37;;;;;;;25.58;30.12;99693.53;7683994;32;37875;-67
2022/06/23 08:07:39;;;;;;;5.03;1.58;;;;;;;25.15;31.70;99692.00;7683996;32;37106;-66
2022/06/23 08:16:50;;;;;;;2.90;1.10;;;;;;;25.35;30.29;99693.56;7685131;32;40806;-64
2022/06/23 08:21:31;;;;;;;3.17;1.30;;;;;;;24.88;29.50;99694.75;7685168;32;37982;-68
2022/06/23 08:25:47;;;;;;;1.95;1.10;;;;;;;25.24;30.47;99681.41;7684986;32;37798;-66
2022/06/23 08:30:10;;;;;;;2.42;1.10;;;;;;;25.25;28.30;99683.00;7684783;32;40109;-69
2022/06/23 08:37:58;;;;;;;2.12;1.62;;;;;;;24.59;33.14;99688.63;7832204;32;286004;-66
2022/06/23 08:42:41;;;;;;;2.80;1.27;;;;;;;25.15;29.66;99678.06;7788824;32;40968;-65
2022/06/23 08:47:07;;;;;;;134.40;12.55;;;;;;;25.46;27.15;99680.59;7785379;32;37823;-65
2022/06/23 08:51:38;;;;;;;2.58;1.02;;;;;;;25.46;28.25;99686.19;7771923;32;37196;-62
2022/06/23 08:55:55;;;;;;;1.25;0.95;;;;;;;25.85;27.11;99679.56;7785260;32;39869;-63
2022/06/23 09:00:17;;;;;;;1.65;1.17;;;;;;;25.86;25.79;99676.38;7771327;32;40802;-63
2022/06/23 09:04:56;;;;;;;3.63;1.70;;;;;;;25.92;26.58;99674.06;7785146;32;37882;-55
2022/06/23 09:09:42;;;;;;;5.90;1.42;;;;;;;26.18;28.15;99667.66;7786002;32;37565;-56
2022/06/23 09:14:18;;;;;;;1.10;1.00;;;;;;;26.32;27.57;99667.03;7812001;32;39021;-55
2022/06/23 09:19:16;;;;;;;3.25;1.35;;;;;;;26.67;25.07;99673.41;7800064;32;40810;-68
2022/06/23 09:23:47;;;;;;;13.65;6.53;;;;;;;25.56;25.63;99667.19;7798723;32;37870;-67
2022/06/23 09:28:34;;;;;;;6.03;1.42;;;;;;;25.24;27.45;99664.69;7812055;32;37052;-70
2022/06/23 09:33:10;;;;;;;4.50;1.15;;;;;;;26.29;25.21;99647.41;7804643;32;39884;-66
2022/06/23 09:37:58;;;;;;;8.32;2.12;;;;;;;26.27;25.25;99655.34;7790555;32;39943;-65
2022/06/23 09:42:14;;;;;;;1.70;1.10;;;;;;;25.69;25.00;99651.81;7800181;32;38583;-66
2022/06/23 09:46:32;;;;;;;2.17;1.25;;;;;;;25.59;25.28;99655.25;7805784;32;36898;-64
2022/06/23 09:50:54;;;;;;;2.00;1.20;;;;;;;24.89;25.54;99668.50;7779739;32;38984;-65
2022/06/23 09:55:41;;;;;;;3.73;1.30;;;;;;;25.34;26.05;99664.06;7766285;32;40756;-67
2022/06/23 10:00:17;;;;;;;17.10;7.57;;;;;;;25.26;27.89;99665.13;7766725;32;38635;-66
2022/06/23 10:05:10;;;;;;;5.72;2.90;;;;;;;25.02;26.80;99672.69;7777991;32;36995;-66
2022/06/23 10:09:57;;;;;;;1.75;1.30;;;;;;;24.92;27.15;99667.72;7766489;32;39934;-65
2022/06/23 10:14:32;;;;;;;3.22;2.10;;;;;;;25.04;28.57;99673.13;7784864;32;40781;-65
2022/06/23 10:18:55;;;;;;;2.20;1.30;;;;;;;25.43;28.47;99670.19;7793197;32;37710;-65
2022/06/23 10:23:21;;;;;;;;;;;;;;;25.65;26.82;99674.09;7779490;32;36920;-67
2022/06/23 10:28:00;;;;;;;8.57;1.65;;;;;;;26.67;27.46;99663.03;7793270;32;39610;-67
2022/06/23 10:32:34;;;;;;;3.83;1.00;;;;;;;25.87;26.99;99666.00;7791557;32;39908;-65
2022/06/23 10:37:15;;;;;;;3.25;1.25;;;;;;;25.91;26.34;99672.47;7770063;32;38449;-65
2022/06/23 10:41:55;;;;;;;2.50;0.90;;;;;;;26.78;24.74;99668.72;7765880;32;37747;-66
2022/06/23 10:46:24;;;;;;;7.15;2.28;;;;;;;26.48;23.99;99666.78;7753168;32;39263;-67
2022/06/23 10:51:05;;;;;;;2.33;1.20;;;;;;;26.92;25.02;99671.66;7752876;32;40697;-66
2022/06/23 10:55:36;;;;;;;1.35;1.25;;;;;;;26.57;25.67;99670.06;7765761;32;37922;-67
2022/06/23 11:00:04;;;;;;;3.20;1.20;;;;;;;27.20;24.17;99673.09;7789849;32;36773;-68
2022/06/23 11:04:28;;;;;;;3.22;1.40;;;;;;;27.20;24.50;99667.50;7770273;32;39800;-66
2022/06/23 11:09:00;;;;;;;2.25;1.20;;;;;;;26.78;26.38;99668.72;7792708;32;39913;-66
2022/06/23 11:13:27;;;;;;;3.23;1.30;;;;;;;27.70;23.24;99667.88;7784415;32;38667;-66
2022/06/23 11:17:54;;;;;;;2.03;1.00;;;;;;;27.95;25.51;99660.81;7765408;32;37722;-67
2022/06/23 11:22:37;;;;;;;3.83;1.42;;;;;;;28.20;25.14;99666.50;7765577;32;39165;-67
2022/06/23 11:27:03;;;;;;;2.62;1.20;;;;;;;28.58;23.98;99659.47;7765591;32;38940;-67
2022/06/23 11:31:56;;;;;;;7.30;1.27;;;;;;;28.80;21.94;99668.72;7781901;32;38626;-66
2022/06/23 11:36:31;;;;;;;3.78;1.33;;;;;;;28.93;23.31;99660.69;7792147;32;36674;-66
2022/06/23 11:40:58;;;;;;;2.95;1.10;;;;;;;28.88;25.55;99661.09;7774398;32;39299;-67
2022/06/23 11:45:23;;;;;;;2.60;1.20;;;;;;;29.47;23.33;99657.09;7764940;32;40761;-66
2022/06/23 11:50:05;;;;;;;1.65;1.08;;;;;;;29.85;25.76;99652.59;7751398;32;38046;-66
2022/06/23 11:54:45;;;;;;;3.40;1.40;;;;;;;30.10;22.51;99660.16;7764914;32;36975;-66
2022/06/23 11:59:29;;;;;;;2.25;1.05;;;;;;;30.66;22.27;99649.81;7764890;32;38876;-66
2022/06/23 12:04:21;;;;;;;2.67;0.90;;;;;;;31.02;21.46;99652.38;7764205;32;40227;-66
2022/06/23 12:08:56;;;;;;;4.87;1.20;;;;;;;30.07;22.30;99639.28;7764150;32;38841;-65
2022/06/23 12:13:12;;;;;;;4.28;1.23;;;;;;;30.37;21.24;99649.19;7764534;32;36934;-63
2022/06/23 12:17:32;;;;;;;1.50;1.10;;;;;;;30.65;20.54;99651.03;7764376;32;39191;-61
2022/06/23 12:22:16;;;;;;;3.15;1.08;;;;;;;30.98;20.37;99646.00;7750785;32;39871;-61
2022/06/23 12:26:42;;;;;;;1.98;1.00;;;;;;;29.80;21.59;99653.00;7764181;32;38113;-62
2022/06/23 12:31:20;;;;;;;3.90;1.25;;;;;;;30.09;19.47;99650.09;7751573;32;36871;-62
2022/06/23 12:35:52;;;;;;;3.55;1.05;;;;;;;29.45;20.48;99649.06;7751364;32;39990;-61
2022/06/23 12:40:27;;;;;;;1.95;0.93;;;;;;;30.31;21.13;99643.16;7762858;32;39756;-61
2022/06/23 12:44:46;;;;;;;2.92;1.10;;;;;;;30.67;20.38;99637.34;7762753;32;37903;-61
2022/06/23 12:49:53;;;;;;;2.80;1.10;;;;;;;31.57;16.73;99628.16;7763907;32;36658;-61
2022/06/23 12:54:47;;;;;;;7.53;1.17;;;;;;;31.64;16.74;99630.09;7666702;32;39743;-62
2022/06/23 12:59:11;;;;;;;2.10;1.10;;;;;;;32.07;15.65;99629.59;7737309;32;39837;-62
2022/06/23 13:03:34;;;;;;;1.20;0.98;;;;;;;32.04;16.38;99627.59;7763496;32;38602;-62
2022/06/23 13:08:01;;;;;;;1.25;0.90;;;;;;;32.48;15.38;99620.16;7763488;32;36859;-63
2022/06/23 13:12:30;;;;;;;1.17;0.95;;;;;;;33.52;14.39;99614.03;7763388;32;39153;-62
2022/06/23 13:16:55;;;;;;;2.30;1.17;;;;;;;33.74;16.47;99606.75;7763164;32;40807;-63
2022/06/23 13:21:22;;;;;;;1.73;1.02;;;;;;;34.14;14.31;99611.56;7763634;32;38101;-63
2022/06/23 13:26:13;;;;;;;1.45;0.80;;;;;;;35.92;13.17;99605.47;7766923;32;37712;-63
2022/06/23 13:30:39;;;;;;;3.05;1.33;;;;;;;38.00;10.98;99591.22;7766860;32;39819;-63
2022/06/23 13:35:22;;;;;;;1.98;0.90;;;;;;;39.32;9.75;99591.97;7753684;32;39844;-63
2022/06/23 13:39:44;;;;;;;2.92;1.05;;;;;;;39.06;10.02;99578.03;7754858;32;37808;-63
2022/06/23 13:44:29;;;;;;;3.35;1.05;;;;;;;38.46;10.18;99577.22;7752892;32;36813;-63
2022/06/23 13:48:47;;;;;;;3.03;0.80;;;;;;;37.94;10.28;99581.69;7754570;32;39897;-63
2022/06/23 13:53:12;;;;;;;0.98;0.85;;;;;;;38.46;11.08;99577.22;7766438;32;40007;-64
2022/06/23 13:57:39;;;;;;;1.65;1.00;;;;;;;39.35;10.70;99568.22;7766496;32;38608;-63
2022/06/23 14:02:00;;;;;;;4.22;1.02;;;;;;;38.44;9.71;99568.34;7752417;32;36808;-63
2022/06/23 14:06:25;;;;;;;1.98;0.95;;;;;;;38.10;10.57;99572.13;7766405;32;38996;-63
2022/06/23 14:11:04;;;;;;;0.90;0.90;;;;;;;38.64;10.51;99564.34;7753190;32;40773;-62
2022/06/23 14:15:48;;;;;;;2.22;1.05;;;;;;;38.80;11.16;99568.94;7754122;32;38736;-62
2022/06/23 14:20:24;;;;;;;1.83;0.90;;;;;;;39.29;10.89;99564.41;7762946;32;35754;-62
2022/06/23 14:25:05;;;;;;;2.10;0.80;;;;;;;38.50;10.41;99571.38;7764912;32;39074;-63
2022/06/23 14:29:52;;;;;;;1.87;0.90;;;;;;;39.73;9.91;99559.16;7765904;32;39939;-62
2022/06/23 14:34:27;;;;;;;3.30;0.70;;;;;;;39.34;9.96;99552.37;7765665;32;36583;-62
2022/06/23 14:39:08;;;;;;;0.82;0.80;;;;;;;38.57;10.87;99558.87;7764572;32;36941;-63
2022/06/23 14:43:53;;;;;;;2.45;0.88;;;;;;;38.51;11.65;99553.81;7765889;32;39952;-62
2022/06/23 14:48:19;;;;;;;1.40;0.95;;;;;;;38.16;10.80;99546.75;7764628;32;40817;-62
2022/06/23 14:52:53;;;;;;;1.77;1.30;;;;;;;37.04;11.00;99556.50;7764450;32;37874;-62
2022/06/23 14:57:40;;;;;;;2.78;0.90;;;;;;;36.76;12.20;99552.63;7764485;32;37603;-63
2022/06/23 15:02:40;;;;;;;3.85;1.10;;;;;;;36.80;10.71;99551.25;7764555;32;38810;-62
2022/06/23 15:07:09;;;;;;;3.50;1.00;;;;;;;36.05;12.73;99556.50;7765487;32;39886;-63
2022/06/23 15:11:37;;;;;;;3.65;1.10;;;;;;;35.13;12.60;99547.31;7765450;32;38037;-63
2022/06/23 15:16:16;;;;;;;1.12;0.95;;;;;;;35.92;12.79;99543.06;7765511;32;36910;-62
2022/06/23 15:20:53;;;;;;;1.45;0.80;;;;;;;35.55;12.31;99541.75;7755024;32;39255;-62
2022/06/23 15:25:21;;;;;;;1.58;0.95;;;;;;;35.95;11.70;99534.94;7765378;32;39902;-63
2022/06/23 15:29:46;;;;;;;1.50;1.00;;;;;;;36.62;10.88;99537.63;7765375;32;38058;-64
2022/06/23 15:34:11;;;;;;;1.50;0.98;;;;;;;36.47;11.33;99530.84;7765161;32;37600;-64
2022/06/23 15:38:45;;;;;;;3.25;0.88;;;;;;;37.33;10.83;99533.56;7765073;32;39898;-63
2022/06/23 15:43:16;;;;;;;2.37;0.85;;;;;;;37.61;11.41;99530.13;7765191;32;39986;-63
2022/06/23 15:47:51;;;;;;;2.93;0.80;;;;;;;36.43;10.45;99527.34;7764657;32;37934;-65
2022/06/23 15:52:50;;;;;;;5.20;0.90;;;;;;;36.62;11.13;99531.94;7764393;32;35901;-64
2022/06/23 15:57:32;;;;;;;2.20;1.10;;;;;;;36.58;12.36;99528.44;7757907;32;38199;-64
2022/06/23 16:02:17;;;;;;;2.00;1.13;;;;;;;36.94;10.21;99523.59;7764830;32;39869;-65
2022/06/23 16:06:37;;;;;;;1.05;0.90;;;;;;;36.95;10.39;99519.53;7764698;32;38199;-65
2022/06/23 16:11:11;;;;;;;3.60;1.08;;;;;;;36.73;11.80;99510.94;7764650;32;36664;-65
2022/06/23 16:15:37;;;;;;;1.85;0.70;;;;;;;36.63;11.92;99510.03;7764650;32;39421;-64
2022/06/23 16:20:05;;;;;;;4.68;0.90;;;;;;;36.57;10.85;99517.56;7763366;32;39981;-64
2022/06/23 16:24:43;;;;;;;2.28;1.00;;;;;;;36.24;11.46;99527.13;7764368;32;38665;-63
2022/06/23 16:29:11;;;;;;;4.37;1.30;;;;;;;35.77;12.41;99516.41;7763385;32;37708;-64
2022/06/23 16:33:39;;;;;;;3.53;1.30;;;;;;;35.21;11.74;99519.63;7763104;32;40038;-64
2022/06/23 16:38:00;;;;;;;1.20;1.10;;;;;;;35.02;12.42;99521.34;7762811;32;40038;-66
2022/06/23 16:42:57;;;;;;;3.23;0.93;;;;;;;34.77;11.87;99517.94;7764080;32;37951;-63
2022/06/23 16:47:35;;;;;;;4.28;1.00;;;;;;;34.58;11.87;99515.97;7764077;32;36850;-64
2022/06/23 16:52:07;;;;;;;1.37;0.73;;;;;;;34.09;12.15;99518.78;7763911;32;39948;-63
2022/06/23 16:56:47;;;;;;;2.40;0.88;;;;;;;33.92;12.97;99527.22;7763255;32;39831;-64
2022/06/23 17:01:20;;;;;;;5.00;1.02;;;;;;;33.55;12.72;99520.72;7766084;32;38592;-64
2022/06/23 17:05:40;;;;;;;4.62;1.10;;;;;;;33.40;13.76;99520.22;7767171;32;37627;-65
2022/06/23 17:10:37;;;;;;;5.60;1.33;;;;;;;32.94;15.70;99530.34;7767056;32;40394;-64
2022/06/23 17:14:56;;;;;;;2.22;1.02;;;;;;;32.34;15.37;99527.28;7759275;32;40724;-63
2022/06/23 17:19:28;;;;;;;1.75;1.00;;;;;;;32.09;17.37;99530.50;7767188;32;37633;-64
2022/06/23 17:23:48;;;;;;;1.67;1.15;;;;;;;32.09;16.50;99524.88;7766813;32;36839;-64
2022/06/23 17:28:15;;;;;;;2.92;1.00;;;;;;;32.19;16.19;99524.69;7766852;32;39231;-66
2022/06/23 17:33:02;;;;;;;2.33;0.90;;;;;;;31.90;15.97;99526.31;7766773;32;40152;-64
2022/06/23 17:37:29;;;;;;;4.12;0.98;;;;;;;31.58;17.32;99524.72;7766384;32;37871;-64
2022/06/23 17:46:39;;;;;;;1.17;0.90;;;;;;;31.39;18.45;99534.56;7765665;32;39886;-64
2022/06/23 17:51:03;;;;;;;2.75;0.98;;;;;;;31.30;18.64;99531.47;7766464;32;40979;-64
2022/06/23 17:55:41;;;;;;;4.78;1.10;;;;;;;30.98;19.28;99535.44;7765212;32;37901;-63
2022/06/23 18:00:15;;;;;;;3.05;1.35;;;;;;;30.74;20.22;99534.44;7765236;32;36841;-64
2022/06/23 18:04:41;;;;;;;2.72;1.12;;;;;;;30.25;21.10;99535.19;7766137;32;39232;-63
2022/06/23 18:09:13;;;;;;;1.65;1.08;;;;;;;30.17;20.76;99533.63;7765820;32;40804;-65
2022/06/23 18:13:38;;;;;;;6.85;1.65;;;;;;;30.15;21.17;99533.25;7764996;32;37965;-64
2022/06/23 18:18:23;;;;;;;6.43;1.70;;;;;;;29.96;22.03;99543.78;7765928;32;36900;-64
2022/06/23 18:23:10;;;;;;;5.65;1.42;;;;;;;29.53;23.63;99538.34;7765961;32;39881;-64
2022/06/23 18:27:44;;;;;;;4.82;1.70;;;;;;;29.32;24.22;99541.19;7767103;32;40789;-63
2022/06/23 18:32:06;;;;;;;4.57;1.60;;;;;;;29.00;25.15;99542.84;7778554;32;37894;-62
2022/06/23 18:36:31;;;;;;;12.68;1.77;;;;;;;28.84;26.92;99542.47;7777530;32;37475;-64
2022/06/23 18:41:08;;;;;;;8.23;1.45;;;;;;;28.55;27.94;99547.28;7766303;32;39157;-62
2022/06/23 18:45:36;;;;;;;6.72;1.60;;;;;;;28.17;28.54;99555.22;7765796;32;39903;-66
2022/06/23 18:50:03;;;;;;;3.00;1.48;;;;;;;28.06;27.85;99557.97;7766752;32;37860;-63
2022/06/23 18:54:21;;;;;;;1.40;1.12;;;;;;;27.71;28.67;99562.25;7753190;32;36916;-63
2022/06/23 18:59:06;;;;;;;2.85;1.35;;;;;;;27.32;29.61;99566.47;7775508;32;39159;-63
2022/06/23 19:03:27;;;;;;;1.90;1.20;;;;;;;27.29;29.61;99572.03;7775558;32;40791;-66
2022/06/23 19:07:52;;;;;;;1.83;1.23;;;;;;;27.05;29.45;99565.84;7784759;32;37984;-63
2022/06/23 19:12:21;;;;;;;5.47;1.33;;;;;;;26.94;30.26;99571.38;7776437;32;37758;-62
2022/06/23 19:16:47;;;;;;;5.00;1.40;;;;;;;26.62;30.88;99582.31;7779019;32;40003;-65
2022/06/23 19:21:43;;;;;;;1.90;1.02;;;;;;;26.36;31.29;99586.81;7781306;32;40111;-64
2022/06/23 19:26:08;;;;;;;8.15;1.58;;;;;;;26.04;31.72;99595.66;7751998;32;38635;-64
2022/06/23 19:30:35;;;;;;;4.53;1.35;;;;;;;25.78;31.98;99590.91;7773300;32;36964;-65
2022/06/23 19:35:01;;;;;;;12.20;1.65;;;;;;;25.59;32.60;99596.66;7778410;32;39816;-65
2022/06/23 19:39:42;;;;;;;3.03;1.17;;;;;;;25.56;32.34;99608.56;7773082;32;40211;-65
2022/06/23 19:44:18;;;;;;;1.55;1.20;;;;;;;25.31;32.74;99600.66;7787130;32;37946;-65
2022/06/23 19:48:49;;;;;;;5.68;1.20;;;;;;;25.28;32.81;99601.41;7790707;32;35750;-65
2022/06/23 19:53:29;;;;;;;2.75;1.45;;;;;;;25.22;33.10;99594.53;7781563;32;40328;-64
2022/06/23 19:58:18;;;;;;;2.12;1.30;;;;;;;24.90;33.92;99608.75;7790161;32;41337;-66
2022/06/23 20:02:44;;;;;;;3.22;1.62;;;;;;;24.71;33.61;99602.06;7783180;32;37935;-65
2022/06/23 20:07:28;;;;;;;6.90;1.60;;;;;;;24.79;33.87;99603.00;7785002;32;38024;-63
2022/06/23 20:11:49;;;;;;;9.77;1.50;;;;;;;24.49;35.05;99600.03;7767629;32;40047;-64
2022/06/23 20:16:10;;;;;;;2.95;1.30;;;;;;;24.35;35.32;99607.00;7773808;32;40859;-65
2022/06/23 20:20:57;;;;;;;2.10;1.70;;;;;;;24.56;34.02;99603.00;7786451;32;37882;-66
2022/06/23 20:25:40;;;;;;;3.67;1.40;;;;;;;24.38;33.78;99605.44;7764100;32;36553;-66
2022/06/23 20:30:05;;;;;;;11.02;2.00;;;;;;;24.37;33.80;99599.06;7762826;32;39079;-66
2022/06/23 20:34:52;;;;;;;1.52;1.30;;;;;;;24.21;34.22;99603.13;7776953;32;39955;-66
2022/06/23 20:39:29;;;;;;;4.55;1.70;;;;;;;23.91;34.51;99610.09;7762721;32;38547;-66
2022/06/23 20:43:58;;;;;;;3.80;1.40;;;;;;;23.91;34.25;99612.09;7774926;32;37002;-65
2022/06/23 20:48:39;;;;;;;3.90;1.40;;;;;;;23.69;33.73;99622.72;7764812;32;39333;-66
2022/06/23 20:53:10;;;;;;;3.28;1.70;;;;;;;23.32;35.36;99622.28;7782207;32;39937;-65
2022/06/23 20:57:42;;;;;;;16.10;1.70;;;;;;;23.52;34.73;99621.16;7749568;32;37729;-65
2022/06/23 21:02:02;;;;;;;2.30;1.30;;;;;;;23.47;34.93;99624.22;7766026;32;37515;-65
2022/06/23 21:06:39;;;;;;;4.40;1.40;;;;;;;23.00;36.06;99625.09;7748737;32;39935;-65
2022/06/23 21:11:10;;;;;;;2.53;1.55;;;;;;;22.85;36.20;99632.25;7762437;32;39536;-66
2022/06/23 21:15:50;;;;;;;3.35;1.50;;;;;;;22.48;37.39;99627.75;7750202;32;37706;-65
2022/06/23 21:20:33;;;;;;;1.87;1.40;;;;;;;22.63;35.97;99631.72;7761833;32;36739;-65
2022/06/23 21:25:12;;;;;;;3.20;1.40;;;;;;;22.64;36.16;99630.53;7785052;32;40459;-65
2022/06/23 21:29:44;;;;;;;1.58;1.33;;;;;;;22.29;36.21;99644.28;7775290;32;40588;-66
2022/06/23 21:34:09;;;;;;;2.40;1.25;;;;;;;22.64;34.77;99643.63;7773826;32;37737;-64